KNE436 LOWS-LOWI

Flight info

Callsign KNE436
Flight time 0h 25m
Altitude 14000
Route VERDA DCT NANIT NANIT2A
Aircraft A320/M-SDE3FGHIRWY/LB1

Departure

Time 2026-05-08 07:54
Airport Salzburg Airport (LOWS)

Arrival

Time 2026-05-08 08:20
Airport Innsbruck Airport (LOWI)
Time Latitude Longitude Altitude Speed Heading
2026-05-08 07:40 47.79090 12.99960 1414 ft 0 kts 282°
2026-05-08 07:47 47.79090 12.99963 1414 ft 2 kts 282°
2026-05-08 07:47 47.79086 12.99988 1416 ft 3 kts 271°
2026-05-08 07:47 47.79088 13.00013 1414 ft 3 kts 236°
2026-05-08 07:48 47.79096 13.00028 1417 ft 3 kts 211°
2026-05-08 07:48 47.79113 13.00037 1414 ft 3 kts 174°
2026-05-08 07:48 47.79119 13.00036 1414 ft 0 kts 162°
2026-05-08 07:49 47.79114 13.00040 1414 ft 2 kts 156°
2026-05-08 07:49 47.79097 13.00056 1417 ft 9 kts 148°
2026-05-08 07:49 47.79026 13.00111 1414 ft 11 kts 159°
2026-05-08 07:50 47.78969 13.00163 1414 ft 8 kts 106°
2026-05-08 07:50 47.78954 13.00240 1414 ft 7 kts 95°
2026-05-08 07:50 47.78954 13.00244 1414 ft 0 kts 94°
2026-05-08 07:51 47.78952 13.00275 1414 ft 11 kts 94°
2026-05-08 07:51 47.78915 13.00385 1414 ft 14 kts 144°
2026-05-08 07:51 47.78825 13.00453 1414 ft 14 kts 155°
2026-05-08 07:52 47.78741 13.00502 1416 ft 12 kts 158°
2026-05-08 07:52 47.78669 13.00547 1419 ft 11 kts 155°
2026-05-08 07:52 47.78542 13.00630 1414 ft 25 kts 155°
2026-05-08 07:52 47.78381 13.00727 1416 ft 26 kts 158°
2026-05-08 07:53 47.78236 13.00836 1414 ft 16 kts 130°
2026-05-08 07:53 47.78182 13.00964 1415 ft 13 kts 97°
2026-05-08 07:53 47.78208 13.01075 1413 ft 10 kts 63°
2026-05-08 07:53 47.78266 13.01076 1414 ft 13 kts 333°
2026-05-08 07:54 47.78591 13.00868 1417 ft 93 kts 337°
2026-05-08 07:54 47.79407 13.00355 1424 ft 158 kts 336°
2026-05-08 07:54 47.80469 12.99693 2106 ft 168 kts 338°
2026-05-08 07:54 47.81567 12.99067 2957 ft 171 kts 349°
2026-05-08 07:55 47.82801 12.99153 3364 ft 190 kts 20°
2026-05-08 07:55 47.83993 13.00224 3674 ft 213 kts 36°
2026-05-08 07:55 47.85266 13.01589 4073 ft 238 kts 36°
2026-05-08 07:55 47.86677 13.03100 4591 ft 260 kts 36°
2026-05-08 07:56 47.88171 13.04693 5394 ft 268 kts 35°
2026-05-08 07:56 47.89707 13.06324 6329 ft 274 kts 35°
2026-05-08 07:56 47.91168 13.08189 7204 ft 280 kts 50°
2026-05-08 07:56 47.92198 13.10663 8083 ft 286 kts 68°
2026-05-08 07:57 47.92660 13.13531 8942 ft 292 kts 85°
2026-05-08 07:57 47.92536 13.16563 9810 ft 297 kts 104°
2026-05-08 07:57 47.91766 13.19456 10440 ft 309 kts 123°
2026-05-08 07:57 47.90294 13.21916 10749 ft 329 kts 145°
2026-05-08 07:58 47.88179 13.23442 11223 ft 340 kts 168°
2026-05-08 07:58 47.85873 13.24109 11956 ft 345 kts 171°
2026-05-08 07:58 47.83492 13.24770 12762 ft 349 kts 171°
2026-05-08 07:58 47.81098 13.25448 13568 ft 352 kts 171°
2026-05-08 07:59 47.78678 13.26142 14274 ft 356 kts 171°
2026-05-08 07:59 47.76241 13.26842 14976 ft 359 kts 171°
2026-05-08 07:59 47.73774 13.27548 15679 ft 362 kts 171°
2026-05-08 07:59 47.71293 13.28256 16376 ft 365 kts 171°
2026-05-08 08:00 47.68787 13.28969 17052 ft 368 kts 171°
2026-05-08 08:00 47.66258 13.29686 17723 ft 371 kts 171°
2026-05-08 08:00 47.63710 13.30403 18382 ft 374 kts 171°
2026-05-08 08:00 47.61138 13.31116 18885 ft 378 kts 173°
2026-05-08 08:01 47.58527 13.31241 19057 ft 375 kts 189°
2026-05-08 08:01 47.56046 13.30154 19097 ft 372 kts 207°
2026-05-08 08:01 47.53914 13.28040 19098 ft 368 kts 225°
2026-05-08 08:01 47.52396 13.25022 19100 ft 367 kts 244°
2026-05-08 08:02 47.51645 13.21421 19096 ft 367 kts 258°
2026-05-08 08:02 47.51144 13.17714 19101 ft 368 kts 258°
2026-05-08 08:02 47.50642 13.14000 19098 ft 368 kts 258°
2026-05-08 08:02 47.50135 13.10292 19096 ft 368 kts 258°
2026-05-08 08:03 47.49621 13.06578 19097 ft 368 kts 258°
2026-05-08 08:03 47.49104 13.02877 19096 ft 368 kts 258°
2026-05-08 08:03 47.48584 12.99178 19091 ft 368 kts 258°
2026-05-08 08:03 47.48060 12.95473 19093 ft 368 kts 258°
2026-05-08 08:04 47.47537 12.91788 19087 ft 368 kts 258°
2026-05-08 08:04 47.47011 12.88079 19091 ft 368 kts 258°
2026-05-08 08:04 47.46488 12.84377 19087 ft 368 kts 258°
2026-05-08 08:04 47.45973 12.80728 19086 ft 368 kts 258°
2026-05-08 08:05 47.45449 12.77031 19088 ft 368 kts 258°
2026-05-08 08:05 47.44922 12.73344 19090 ft 368 kts 258°
2026-05-08 08:05 47.44388 12.69645 19089 ft 367 kts 258°
2026-05-08 08:05 47.43856 12.65957 19089 ft 365 kts 258°
2026-05-08 08:06 47.43334 12.62333 18868 ft 357 kts 258°
2026-05-08 08:06 47.42817 12.58771 18632 ft 353 kts 257°
2026-05-08 08:06 47.42305 12.55239 18397 ft 352 kts 258°
2026-05-08 08:06 47.41796 12.51710 18130 ft 351 kts 258°
2026-05-08 08:07 47.41289 12.48199 17807 ft 347 kts 258°
2026-05-08 08:07 47.40784 12.44729 17349 ft 345 kts 258°
2026-05-08 08:07 47.40278 12.41277 16883 ft 343 kts 257°
2026-05-08 08:07 47.39776 12.37855 16424 ft 340 kts 258°
2026-05-08 08:08 47.39476 12.34403 15951 ft 339 kts 269°
2026-05-08 08:08 47.39650 12.30934 15487 ft 339 kts 278°
2026-05-08 08:08 47.39988 12.27506 15016 ft 337 kts 277°
2026-05-08 08:08 47.40317 12.24084 14569 ft 336 kts 277°
2026-05-08 08:09 47.40638 12.20669 14106 ft 337 kts 277°
2026-05-08 08:09 47.40957 12.17245 13606 ft 336 kts 277°
2026-05-08 08:09 47.41251 12.14097 13167 ft 335 kts 277°
2026-05-08 08:09 47.41565 12.10707 12690 ft 333 kts 277°
2026-05-08 08:10 47.41873 12.07331 12212 ft 331 kts 277°
2026-05-08 08:10 47.42180 12.03976 11743 ft 329 kts 277°
2026-05-08 08:10 47.42486 12.00636 11265 ft 328 kts 277°
2026-05-08 08:10 47.42727 11.97300 10780 ft 326 kts 270°
2026-05-08 08:11 47.42446 11.94021 10458 ft 314 kts 255°
2026-05-08 08:11 47.41665 11.91145 10332 ft 292 kts 241°
2026-05-08 08:11 47.40588 11.88731 10197 ft 272 kts 236°
2026-05-08 08:11 47.39539 11.86513 10063 ft 257 kts 236°
2026-05-08 08:12 47.38531 11.84375 9853 ft 253 kts 236°
2026-05-08 08:12 47.37588 11.82208 9456 ft 255 kts 244°
2026-05-08 08:12 47.36906 11.79801 9063 ft 253 kts 249°
2026-05-08 08:12 47.36265 11.77446 8669 ft 242 kts 248°
2026-05-08 08:13 47.35649 11.75213 8307 ft 233 kts 248°
2026-05-08 08:13 47.35038 11.73007 7954 ft 226 kts 248°
2026-05-08 08:13 47.34476 11.70986 7629 ft 219 kts 248°
2026-05-08 08:13 47.33907 11.68941 7314 ft 210 kts 248°
2026-05-08 08:14 47.33424 11.67205 7026 ft 200 kts 248°
2026-05-08 08:14 47.32908 11.65356 6711 ft 190 kts 248°
2026-05-08 08:14 47.32415 11.63590 6421 ft 183 kts 248°
2026-05-08 08:14 47.31941 11.61886 6133 ft 176 kts 248°
2026-05-08 08:15 47.31485 11.60250 5887 ft 168 kts 248°
2026-05-08 08:15 47.31058 11.58724 5618 ft 156 kts 248°
2026-05-08 08:15 47.30655 11.57280 5368 ft 151 kts 248°
2026-05-08 08:15 47.30256 11.55857 5130 ft 149 kts 248°
2026-05-08 08:16 47.29860 11.54446 4889 ft 149 kts 248°
2026-05-08 08:16 47.29466 11.53040 4676 ft 148 kts 248°
2026-05-08 08:16 47.29075 11.51635 4469 ft 148 kts 248°
2026-05-08 08:16 47.28685 11.50239 4254 ft 147 kts 248°
2026-05-08 08:17 47.28295 11.48847 4023 ft 147 kts 248°
2026-05-08 08:17 47.27907 11.47461 3797 ft 146 kts 248°
2026-05-08 08:17 47.27521 11.46082 3563 ft 145 kts 248°
2026-05-08 08:17 47.27149 11.44703 3324 ft 145 kts 254°
2026-05-08 08:18 47.26970 11.43246 3102 ft 144 kts 261°
2026-05-08 08:18 47.26814 11.41789 2877 ft 144 kts 261°
2026-05-08 08:18 47.26659 11.40335 2647 ft 143 kts 261°
2026-05-08 08:18 47.26505 11.38889 2423 ft 143 kts 261°
2026-05-08 08:19 47.26350 11.37448 2212 ft 143 kts 261°
2026-05-08 08:19 47.26192 11.36007 1987 ft 142 kts 262°
2026-05-08 08:19 47.26047 11.34663 1906 ft 115 kts 261°
2026-05-08 08:19 47.25951 11.33756 1917 ft 65 kts 261°
2026-05-08 08:20 47.25905 11.33325 1918 ft 31 kts 261°
2026-05-08 08:20 47.25849 11.33166 1920 ft 14 kts 240°
2026-05-08 08:20 47.25864 11.33115 1921 ft 7 kts 24°
2026-05-08 08:20 47.25895 11.33165 1919 ft 6 kts 91°
2026-05-08 08:21 47.25895 11.33233 1919 ft 12 kts 83°
2026-05-08 08:21 47.25909 11.33370 1918 ft 14 kts 81°
2026-05-08 08:21 47.25926 11.33519 1918 ft 14 kts 80°
2026-05-08 08:21 47.25921 11.33655 1918 ft 13 kts 115°
2026-05-08 08:22 47.25863 11.33754 1918 ft 13 kts 128°
2026-05-08 08:22 47.25814 11.33869 1917 ft 14 kts 121°
2026-05-08 08:22 47.25773 11.33998 1902 ft 15 kts 102°
2026-05-08 08:22 47.25782 11.34183 1898 ft 12 kts 77°
2026-05-08 08:23 47.25784 11.34193 1902 ft 5 kts 75°
2026-05-08 08:23 47.25810 11.34472 1903 ft 30 kts 78°
2026-05-08 08:23 47.25846 11.34782 1904 ft 31 kts 82°
2026-05-08 08:23 47.25878 11.35052 1907 ft 10 kts 79°
2026-05-08 08:24 47.25887 11.35149 1907 ft 8 kts 103°
2026-05-08 08:24 47.25855 11.35175 1899 ft 5 kts 171°
2026-05-08 08:24 47.25835 11.35180 1902 ft 0 kts 171°